Time;durP1;ratioP1;P1;durP2;ratioP2;P2;SDS_P1;SDS_P2;PMS_P1;PMS_P2;Temp;Humidity;BMP_temperature;BMP_pressure;BME280_temperature;BME280_humidity;BME280_pressure;Samples;Min_cycle;Max_cycle;Signal;HPM_P1;HPM_P2
2023/01/05 00:04:56;;;;;;;1.13;0.75;;;;;;;8.82;95.37;100786.44;9876653;29;20055;-87
2023/01/05 00:22:29;;;;;;;1.88;0.68;;;;;;;8.85;95.61;100798.69;9893424;29;20191;-87
2023/01/05 00:26:58;;;;;;;0.82;0.40;;;;;;;8.66;95.74;100802.56;9904681;29;20059;-85
2023/01/05 00:32:00;;;;;;;4.45;0.80;;;;;;;8.54;96.11;100811.00;9912401;29;20066;-82
2023/01/05 00:37:02;;;;;;;0.13;0.13;;;;;;;8.48;96.69;100818.66;9925002;29;20101;-83
2023/01/05 00:42:03;;;;;;;1.88;1.25;;;;;;;8.42;96.86;100808.00;9916491;29;20151;-84
2023/01/05 00:47:05;;;;;;;0.20;0.20;;;;;;;8.44;97.45;100807.25;9912525;29;20059;-82
2023/01/05 00:52:08;;;;;;;0.68;0.38;;;;;;;8.45;97.56;100810.75;9913656;29;20166;-83
2023/01/05 00:57:11;;;;;;;1.27;0.77;;;;;;;8.43;97.73;100809.78;9921565;29;20067;-84
2023/01/05 01:02:13;;;;;;;2.65;0.77;;;;;;;8.44;97.67;100822.03;9910810;29;20048;-85
2023/01/05 01:07:15;;;;;;;0.95;0.63;;;;;;;8.43;97.48;100823.72;9914913;29;20088;-85
2023/01/05 01:12:17;;;;;;;0.40;0.38;;;;;;;8.39;97.90;100823.59;9920767;29;20055;-81
2023/01/05 01:17:18;;;;;;;0.17;0.17;;;;;;;8.31;97.92;100829.47;9928570;29;20063;-83
2023/01/05 01:22:22;;;;;;;1.00;0.40;;;;;;;8.29;98.06;100839.00;9910220;29;20051;-84
2023/01/05 01:27:24;;;;;;;2.97;1.08;;;;;;;8.28;98.38;100841.56;9917810;29;20058;-83
2023/01/05 01:32:25;;;;;;;0.52;0.45;;;;;;;8.28;98.32;100842.44;9908427;29;20123;-84
2023/01/05 01:37:27;;;;;;;2.25;0.52;;;;;;;8.28;98.40;100841.56;9907225;29;20150;-83
2023/01/05 01:42:30;;;;;;;1.08;1.02;;;;;;;8.32;98.46;100862.56;9920208;29;20059;-83
2023/01/05 01:47:39;;;;;;;1.65;0.57;;;;;;;8.37;98.26;100867.03;9909202;29;20249;-82
2023/01/05 01:52:43;;;;;;;2.30;0.50;;;;;;;8.41;98.08;100863.69;9902911;29;20052;-84
2023/01/05 01:57:46;;;;;;;1.85;1.05;;;;;;;8.42;98.08;100863.72;9895084;29;20468;-84
2023/01/05 02:02:51;;;;;;;1.13;0.60;;;;;;;8.47;97.76;100888.22;9895246;29;20101;-85
2023/01/05 02:08:15;;;;;;;0.20;0.20;;;;;;;8.46;97.76;100872.53;9899536;29;20609;-84
2023/01/05 02:13:39;;;;;;;0.47;0.30;;;;;;;8.38;97.64;100876.66;9906810;29;20051;-81
2023/01/05 02:18:56;;;;;;;1.15;0.30;;;;;;;8.26;97.54;100891.09;9911259;29;20070;-80
2023/01/05 02:24:23;;;;;;;0.85;0.28;;;;;;;8.21;97.86;100884.88;9926815;29;20547;-81
2023/01/05 02:29:50;;;;;;;0.20;0.20;;;;;;;8.20;98.07;100884.84;9907052;29;20059;-81
2023/01/05 02:35:10;;;;;;;1.63;0.32;;;;;;;8.21;98.39;100887.50;9899862;29;20234;-83
2023/01/05 02:40:22;;;;;;;2.38;0.68;;;;;;;8.23;98.55;100896.22;9894772;29;20059;-83
2023/01/05 02:45:24;;;;;;;3.13;0.88;;;;;;;8.26;98.64;100891.09;9890076;29;20495;-83
2023/01/05 02:51:10;;;;;;;3.88;1.20;;;;;;;8.32;98.41;100891.28;9897107;29;20142;-84
2023/01/05 02:56:25;;;;;;;1.40;0.85;;;;;;;8.39;98.30;100899.25;9889112;29;20071;-84
2023/01/05 03:01:35;;;;;;;0.40;0.40;;;;;;;8.39;98.14;100909.69;9896857;29;20104;-86
2023/01/05 03:06:57;;;;;;;;;;;;;;;8.42;98.00;100901.97;9896913;29;20077;-85
2023/01/05 03:18:02;;;;;;;0.25;0.25;;;;;;;8.45;97.46;100902.06;9897375;29;20439;-86
2023/01/05 07:44:30;;;;;;;1.15;0.63;;;;;;;7.83;96.43;101254.84;9884287;29;20052;-83
2023/01/05 07:49:32;;;;;;;0.52;0.38;;;;;;;7.77;96.92;101263.31;9883878;29;20063;-84
2023/01/05 07:54:34;;;;;;;2.55;1.13;;;;;;;7.75;97.28;101261.53;9876813;29;20170;-83
2023/01/05 07:59:36;;;;;;;0.85;0.60;;;;;;;7.74;97.63;101280.59;9892731;29;20055;-83
2023/01/05 08:04:38;;;;;;;0.52;0.43;;;;;;;7.66;97.72;101277.72;9874315;29;20060;-82
2023/01/05 08:15:00;;;;;;;0.47;0.22;;;;;;;7.48;98.03;101296.16;9858813;29;20058;-85
2023/01/05 08:20:01;;;;;;;0.40;0.40;;;;;;;7.37;98.03;101306.19;9869644;29;20436;-86
2023/01/05 08:25:06;;;;;;;0.28;0.25;;;;;;;7.33;97.96;101324.25;9881748;29;20058;-85
2023/01/05 08:30:20;;;;;;;0.35;0.35;;;;;;;7.28;97.72;101336.19;9885255;29;20286;-86
2023/01/05 08:35:23;;;;;;;3.92;0.80;;;;;;;7.24;97.75;101346.47;9863540;30;20586;-85
2023/01/05 08:40:36;;;;;;;0.17;0.17;;;;;;;7.19;97.66;101348.03;9878121;29;20064;-86
2023/01/05 08:46:40;;;;;;;0.20;0.20;;;;;;;7.19;97.55;101368.88;9874273;29;20516;-87
2023/01/05 08:52:32;;;;;;;0.20;0.20;;;;;;;7.21;97.44;101377.63;9863103;29;20062;-85
2023/01/05 08:57:57;;;;;;;0.00;0.00;;;;;;;7.29;97.40;101382.25;9875277;29;20056;-87
2023/01/05 13:56:11;;;;;;;0.57;0.22;;;;;;;8.21;84.41;101656.19;9958247;24;20062;-88
2023/01/05 15:24:11;;;;;;;3.85;1.13;;;;;;;7.47;92.67;101713.91;9945119;29;20047;-87
2023/01/05 16:03:49;;;;;;;0.93;0.90;;;;;;;7.47;94.99;101732.16;10032468;24;20062;-86
2023/01/05 16:15:00;;;;;;;1.75;1.10;;;;;;;7.40;95.39;101740.53;9893758;29;20595;-86
2023/01/05 16:20:32;;;;;;;3.80;1.63;;;;;;;7.39;95.62;101741.38;9898016;29;20521;-87
2023/01/05 16:25:56;;;;;;;1.75;0.88;;;;;;;7.35;95.85;101732.50;9911100;29;20175;-84
2023/01/05 17:14:20;;;;;;;1.63;0.65;;;;;;;7.03;97.23;101715.41;11944424;24;21210;-87
2023/01/05 17:59:26;;;;;;;9.80;1.48;;;;;;;6.94;98.38;101705.44;9951465;29;20051;-88
2023/01/05 18:05:07;;;;;;;6.90;2.53;;;;;;;6.98;98.42;101701.25;9944949;29;20058;-87
2023/01/05 18:10:47;;;;;;;2.88;1.55;;;;;;;7.00;98.66;101700.53;9933479;29;20541;-90
2023/01/05 18:16:33;;;;;;;1.90;1.08;;;;;;;7.08;98.80;101695.66;9934776;29;20051;-88
2023/01/05 18:22:17;;;;;;;3.80;1.48;;;;;;;7.14;98.88;101684.66;9852545;29;20543;-88
2023/01/05 18:28:09;;;;;;;8.20;2.15;;;;;;;7.20;98.99;101688.41;9836976;29;20063;-88
2023/01/05 18:41:12;;;;;;;1.98;1.00;;;;;;;7.25;99.13;101686.91;9703836;30;20747;-89
2023/01/05 18:47:00;;;;;;;2.80;1.20;;;;;;;7.23;99.32;101685.06;9697045;30;20058;-87
2023/01/05 18:52:23;;;;;;;1.58;0.82;;;;;;;7.22;99.34;101668.53;9705153;30;20061;-87
2023/01/05 18:58:01;;;;;;;4.13;1.25;;;;;;;7.13;99.38;101683.75;9736812;30;20071;-90
2023/01/05 19:03:27;;;;;;;1.35;1.00;;;;;;;7.14;99.40;101679.44;9815710;30;20062;-88
2023/01/05 19:09:06;;;;;;;;;;;;;;;;;;;;;
2023/01/05 19:27:50;;;;;;;;;;;;;;;;;;;;;
2023/01/05 19:33:23;;;;;;;1.65;1.13;;;;;;;6.99;99.55;101679.63;9955943;29;20066;-89
2023/01/05 19:38:35;;;;;;;3.17;0.90;;;;;;;7.02;99.58;101671.94;9939794;29;20535;-87
2023/01/05 19:43:50;;;;;;;2.45;1.55;;;;;;;7.00;99.63;101674.47;9947332;29;20054;-88
2023/01/05 19:49:01;;;;;;;1.33;0.65;;;;;;;7.04;99.71;101667.69;9942957;29;20550;-87
2023/01/05 19:54:18;;;;;;;3.13;1.88;;;;;;;7.08;99.64;101656.59;9946808;29;20080;-87
2023/01/05 19:59:25;;;;;;;2.20;0.88;;;;;;;7.10;99.80;101656.66;9927548;29;20173;-87
2023/01/05 20:04:29;;;;;;;2.05;0.88;;;;;;;7.08;99.60;101648.78;9946444;29;20055;-87
2023/01/05 20:09:41;;;;;;;1.50;0.88;;;;;;;7.02;99.73;101652.00;9943701;29;20473;-89
2023/01/05 20:14:49;;;;;;;2.50;1.30;;;;;;;7.01;99.89;101647.63;9930089;29;20090;-87
2023/01/05 20:19:59;;;;;;;1.88;0.95;;;;;;;6.97;99.83;101652.63;9931672;29;20055;-89
2023/01/05 20:25:08;;;;;;;2.03;1.20;;;;;;;6.95;99.82;101649.06;9944379;29;20062;-88
2023/01/05 20:30:11;;;;;;;2.25;1.50;;;;;;;7.03;99.84;101653.78;9947138;29;20137;-89
2023/01/05 20:35:16;;;;;;;1.17;1.00;;;;;;;7.10;99.89;101636.75;9963564;29;20480;-89
2023/01/05 20:40:19;;;;;;;1.52;1.10;;;;;;;7.19;100.00;101636.25;9956963;29;20069;-92
2023/01/05 20:45:27;;;;;;;2.22;1.25;;;;;;;7.23;99.95;101632.94;9929597;29;20142;-89
2023/01/05 20:50:33;;;;;;;4.30;1.58;;;;;;;7.28;99.94;101630.56;9962499;29;20157;-87
2023/01/05 20:55:39;;;;;;;4.13;1.58;;;;;;;7.32;99.94;101635.06;9931405;29;20062;-88
2023/01/05 21:00:42;;;;;;;1.52;0.65;;;;;;;7.39;100.00;101629.31;9937485;29;20103;-89
2023/01/05 21:06:08;;;;;;;7.80;2.35;;;;;;;7.44;100.00;101635.59;9918563;29;20149;-88
2023/01/05 21:11:14;;;;;;;6.43;1.90;;;;;;;7.49;99.99;101623.69;9915521;29;20054;-88
2023/01/05 21:16:50;;;;;;;2.50;1.23;;;;;;;7.54;99.90;101624.75;9929427;29;20055;-88
2023/01/05 21:21:56;;;;;;;1.77;1.10;;;;;;;7.60;99.72;101618.94;9909283;29;20115;-89
2023/01/05 21:26:58;;;;;;;4.65;1.75;;;;;;;7.63;99.94;101619.06;9921913;29;20082;-88
2023/01/05 21:32:01;;;;;;;5.40;1.35;;;;;;;7.67;99.92;101614.84;9941402;29;20157;-88
2023/01/05 21:37:03;;;;;;;2.30;1.33;;;;;;;7.71;99.89;101608.94;9928650;29;20066;-89
2023/01/05 21:47:26;;;;;;;;;;;;;;;7.78;99.58;101600.56;9940051;29;20447;-88
2023/01/05 21:57:48;;;;;;;2.88;1.83;;;;;;;7.84;99.65;101585.16;9927578;29;20055;-89
2023/01/05 22:02:54;;;;;;;3.28;1.40;;;;;;;7.84;99.76;101579.06;9939479;29;20090;-88
2023/01/05 22:07:57;;;;;;;3.15;2.03;;;;;;;7.84;99.70;101577.34;9938634;29;20534;-88
2023/01/05 22:12:59;;;;;;;3.05;1.85;;;;;;;7.83;99.78;101561.63;9943073;29;20075;-88
2023/01/05 22:18:01;;;;;;;;;;;;;;;7.79;99.75;101565.81;9943428;29;20054;-88
2023/01/05 22:23:03;;;;;;;3.47;2.20;;;;;;;7.82;100.00;101560.75;9933628;29;19929;-88
2023/01/05 22:28:06;;;;;;;2.78;1.30;;;;;;;7.83;99.94;101557.28;9939926;29;20423;-88
2023/01/05 22:33:09;;;;;;;4.85;2.45;;;;;;;7.90;100.00;101561.94;9925240;29;20075;-88
2023/01/05 22:38:11;;;;;;;6.53;2.92;;;;;;;7.90;100.00;101543.69;9927313;29;20054;-88
2023/01/05 22:43:14;;;;;;;3.60;1.92;;;;;;;7.97;100.00;101545.72;9941236;29;20055;-89
2023/01/05 22:48:20;;;;;;;3.47;1.85;;;;;;;7.97;100.00;101540.50;9926679;29;20065;-88
2023/01/05 22:53:22;;;;;;;11.65;4.30;;;;;;;8.01;100.00;101544.09;9926044;29;20431;-88
2023/01/05 22:58:24;;;;;;;6.00;3.00;;;;;;;8.02;100.00;101531.97;9940296;29;20432;-88
2023/01/05 23:03:26;;;;;;;7.05;2.33;;;;;;;8.02;100.00;101522.44;9938126;29;20401;-88
2023/01/05 23:08:28;;;;;;;4.22;2.35;;;;;;;8.06;100.00;101518.19;9932679;29;20069;-88
2023/01/05 23:13:31;;;;;;;4.32;2.50;;;;;;;8.03;100.00;101515.47;9925825;29;20051;-88
2023/01/05 23:18:36;;;;;;;7.85;3.03;;;;;;;8.03;100.00;101512.88;9926218;29;20501;-88
2023/01/05 23:23:39;;;;;;;6.45;3.25;;;;;;;8.08;100.00;101506.13;9925755;29;20244;-90
2023/01/05 23:28:43;;;;;;;5.35;2.60;;;;;;;8.05;100.00;101506.88;9925281;29;20108;-91
2023/01/05 23:33:47;;;;;;;4.38;2.40;;;;;;;8.08;100.00;101493.09;9936187;29;20050;-90
2023/01/05 23:38:49;;;;;;;6.35;2.85;;;;;;;8.09;100.00;101487.94;9931989;29;20577;-87
2023/01/05 23:43:52;;;;;;;2.17;1.63;;;;;;;8.14;100.00;101481.16;9926364;29;20528;-88
2023/01/05 23:48:55;;;;;;;3.90;2.00;;;;;;;8.18;100.00;101487.41;9927238;29;20058;-89
2023/01/05 23:53:58;;;;;;;6.15;2.35;;;;;;;8.16;100.00;101470.78;9939689;29;20198;-89
2023/01/05 23:59:04;;;;;;;14.07;4.53;;;;;;;8.20;100.00;101464.84;9933765;29;20070;-90
